関西国際空港の過去48時間の天気

関西国際空港 (Kansai intl)

現在時刻: 9/19 08:01 JST (9/18 23:01 UTC) 以下の時間は現地時間です。

過去48時間のMETAR気象情報
時間 風向 風速(m/s) 視程 気温(℃) 湿度(%) 気圧(hPa) 天気現象
19 07:30 北東 5 10km以上 25 74 1013
19 07:00 北東 6 10km以上 24 78 1012
19 06:30 北北東 4 10km以上 24 78 1012
19 06:00 3 10km以上 24 78 1012
19 05:30 4 10km以上 24 78 1012
19 05:00 北北西 4 10km以上 24 78 1012
19 04:30 北北西 6 10km以上 24 83 1011
19 04:00 北北西 5 10km以上 24 78 1011
19 03:30 北北西 6 10km以上 24 78 1011
19 03:00 北西 6 10km以上 24 78 1011
19 02:30 北西 7 10km以上 24 83 1011
19 02:00 北西 8 10km以上 24 78 1011
19 01:30 北西 8 10km以上 24 83 1011
19 01:00 北西 7 10km以上 24 83 1011
19 00:30 北西 7 10km以上 24 83 1011
19 00:00 北西 8 10km以上 24 83 1011
18 23:30 北西 8 10km以上 24 83 1011
18 23:00 北西 7 10km以上 24 83 1011
18 22:30 北西 8 10km以上 24 83 1011
18 22:00 北西 8 10km以上 24 89 1011
18 21:30 北西 7 10km以上 25 78 1011
18 21:00 北西 8 10km以上 25 78 1011
18 20:30 北北西 7 10km以上 25 78 1010
18 20:00 北北西 8 10km以上 25 83 1010
18 19:30 北北西 9 10km以上 25 83 1009
18 19:00 北北西 9 10km以上 25 83 1009
18 18:30 北北西 8 10km以上 26 79 1009
18 18:00 北北西 7 10km以上 26 79 1008
18 17:30 北北西 7 10km以上 26 79 1008
18 17:00 北北西 7 10km以上 26 84 1007
18 16:30 西北西 6 10km以上 26 89 1007
18 16:00 西北西 6 10km以上 26 89 1006
18 15:30 北西 4 10km以上 26 89 1006
18 15:00 西北西 2 10km以上 27 84 1006 弱いしゅう雨
18 14:30 西 3 10km以上 27 84 1006
18 14:00 西 3 10km以上 27 84 1006
18 13:30 西 4 10km以上 27 84 1006
18 13:00 西北西 5 10km以上 27 84 1006
18 12:30 西北西 5 10km以上 26 89 1006
18 12:00 西北西 5 10km以上 26 89 1006
18 11:30 西 4 10km以上 26 89 1006
18 11:00 西北西 5 10km以上 25 89 1006
18 10:30 西北西 6 10km以上 25 94 1006
18 10:00 北西 7 10km以上 24 94 1006 周辺でしゅう雨
18 09:30 西北西 7 10km以上 24 100 1006 弱いしゅう雨
18 09:00 北北西 5 7000m 24 100 1005 弱いしゅう雨
18 08:41 6 4500m 24 94 1005 弱いしゅう雨 もや
18 08:30 北北西 8 3000m 24 94 1005 弱いしゅう雨 もや
18 08:10 北北西 7 3000m 24 94 1004 弱いしゅう雨 もや
18 08:00 北北西 7 8000m 24 94 1004 弱いしゅう雨
18 07:30 北東 7 7000m 24 94 1003 周辺でしゅう雨
18 07:00 北東 6 4500m 24 94 1003 弱いしゅう雨 もや
18 06:30 北東 6 8000m 23 100 1002 弱いしゅう雨
18 06:00 東北東 7 5000m 23 100 1002 弱いしゅう雨 もや
18 05:49 東北東 7 4200m 23 100 1002 弱い雨 もや
18 05:30 東北東 7 9000m 23 100 1002 弱い雨
18 05:18 東北東 7 3100m 23 100 1002 弱い雨 もや
18 05:11 東北東 8 3900m 23 100 1002 弱い雨 もや
18 05:00 東北東 7 4300m 23 100 1002 弱い雨 もや
18 04:36 東北東 7 5000m 23 100 1002 弱い雨 もや
18 04:30 東北東 7 3900m 23 100 1002 弱い雨 もや
18 04:00 東北東 8 10km以上 23 100 1002
18 03:30 東北東 6 10km以上 23 100 1003
18 03:17 東北東 5 10km以上 23 100 1003 弱い雨
18 03:07 東北東 5 4700m 23 100 1003 雨 もや
18 03:00 5 5000m 23 100 1002 雨 もや
18 02:46 東南東 6 8000m 23 94 1002
18 02:41 東北東 8 2800m 23 100 1002 雨 もや
18 02:05 9 6000m 23 100 1003
18 01:48 東北東 9 3600m 23 94 1004 雨 もや
18 01:40 東北東 10 1100m 23 94 1004 強い雨 もや
18 01:26 北東 9 1000m 23 100 1005 強い雨 もや
18 01:11 北東 7 1100m 23 100 1004 強い雨 もや
18 00:51 北東 10 2900m 23 100 1004 雨 もや
18 00:37 北東 10 3200m 23 100 1005 強い雨 もや
18 00:30 北東 10 4000m 23 100 1005 強い雨 もや
18 00:18 北東 9 2100m 23 100 1004 強い雨 もや
18 00:09 北東 9 5000m 23 94 1005 雨 もや
18 00:00 北北東 8 3300m 23 100 1005 雨 もや
17 23:48 北東 9 1800m 23 94 1005 強い雨 もや
17 23:39 北東 8 4200m 23 94 1005 強い雨 もや
17 23:30 北東 7 2700m 23 94 1006 雨 もや
17 23:19 北東 5 3000m 23 94 1006 強い雨 もや
17 23:11 北東 5 2300m 23 94 1005 強い雨 もや
17 22:39 6 4500m 23 94 1006 強いしゅう雨 もや
17 22:30 東北東 5 7000m 23 89 1006 しゅう雨
17 22:16 5 5000m 23 94 1006 しゅう雨 もや
17 22:00 東北東 5 10km以上 23 94 1006 弱いしゅう雨
17 21:38 北東 5 10km以上 23 94 1006 弱いしゅう雨
17 21:30 北東 4 8000m 23 94 1007 しゅう雨
17 21:18 東北東 3 6000m 23 94 1007 しゅう雨 もや
17 21:00 北東 4 10km以上 23 94 1007 弱いしゅう雨
17 20:30 東北東 3 10km以上 23 94 1007 弱いしゅう雨
17 20:00 東北東 5 10km以上 23 94 1007 弱いしゅう雨
17 19:30 東北東 4 10km以上 23 94 1008 弱いしゅう雨
17 19:15 東北東 3 10km以上 23 94 1007 弱いしゅう雨
17 19:00 3 10km以上 23 94 1007 しゅう雨
17 18:30 東北東 4 10km以上 23 94 1008 弱いしゅう雨
17 18:00 北東 2 10km以上 23 94 1008 弱いしゅう雨
17 17:30 北東 3 10km以上 23 94 1008 弱いしゅう雨
17 17:00 北北東 4 10km以上 23 94 1008 周辺でしゅう雨
17 16:45 北北東 4 10km以上 23 94 1008 弱いしゅう雨
17 16:30 北東 3 7000m 23 94 1008 しゅう雨 もや
17 16:00 不定 1 7000m 24 89 1009 しゅう雨 もや
17 15:30 東北東 2 10km以上 24 89 1009 弱いしゅう雨
17 15:00 北東 2 10km以上 24 89 1009 弱いしゅう雨
17 14:30 北東 3 10km以上 24 89 1009 弱いしゅう雨
17 14:00 北北東 3 10km以上 24 89 1010 弱いしゅう雨
17 13:30 北北東 3 10km以上 23 94 1010 弱いしゅう雨
17 13:00 不定 1 10km以上 24 83 1010 弱いしゅう雨
17 12:30 2 10km以上 24 83 1011
17 12:00 北東 2 10km以上 24 89 1011
17 11:30 東北東 3 10km以上 23 89 1012 弱いしゅう雨
17 11:00 東北東 2 10km以上 23 94 1012 弱いしゅう雨
17 10:39 不定 1 8000m 23 94 1013 しゅう雨
17 10:30 静穏 0 10km以上 23 89 1013 弱いしゅう雨
17 10:00 不定 1 10km以上 23 89 1013 弱いしゅう雨
17 09:30 2 10km以上 23 89 1013 弱いしゅう雨
17 09:00 南東 3 10km以上 23 89 1013 弱いしゅう雨
17 08:30 南東 4 10km以上 23 89 1012 弱いしゅう雨
RJBB 182230Z 04010KT 9999 FEW020 BKN050 25/20 Q1013 NOSIG
RJBB 182200Z 04011KT 9999 FEW020 BKN050 24/20 Q1012 NOSIG
RJBB 182130Z 02008KT 9999 FEW020 BKN050 24/20 Q1012 NOSIG
RJBB 182100Z 35006KT 330V030 9999 FEW020 24/20 Q1012 NOSIG
RJBB 182030Z AUTO 36008KT 310V030 9999 FEW033 SCT060 24/20 Q1012 NOSIG
RJBB 182000Z AUTO 34008KT 9999 FEW033 SCT060 24/20 Q1012 NOSIG
RJBB 181930Z AUTO 33011KT 9999 FEW038 24/21 Q1011 NOSIG
RJBB 181900Z AUTO 34010KT 9999 FEW036 24/20 Q1011 NOSIG
RJBB 181830Z AUTO 34011KT 9999 NCD 24/20 Q1011 NOSIG
RJBB 181800Z AUTO 32012KT 9999 NSC 24/20 Q1011 BECMG 34012KT
RJBB 181730Z AUTO 32014KT 9999 FEW033 SCT060 24/21 Q1011 BECMG 34012KT
RJBB 181700Z AUTO 32015KT 9999 FEW034 24/20 Q1011 BECMG 34012KT
RJBB 181630Z AUTO 32015KT 9999 FEW038 24/21 Q1011 BECMG 34012KT
RJBB 181600Z AUTO 32013KT 9999 FEW037 SCT040 24/21 Q1011 BECMG 34012KT
RJBB 181530Z AUTO 32014KT 9999 BKN041 BKN042 24/21 Q1011 BECMG 34012KT
RJBB 181500Z AUTO 31015KT 9999 FEW035 24/21 Q1011 BECMG 34012KT
RJBB 181430Z AUTO 32015KT 9999 FEW032 SCT037 BKN038 24/21 Q1011 BECMG 34012KT
RJBB 181400Z AUTO 32014KT 9999 BKN032 BKN041 OVC046 24/21 Q1011 BECMG 34012KT
RJBB 181330Z 32016KT 9999 FEW020 SCT050 24/21 Q1011 BECMG 34013KT
RJBB 181300Z 32015KT 9999 FEW020 SCT050 24/22 Q1011 BECMG 34013KT
RJBB 181230Z 32014KT 9999 FEW020 SCT050 25/21 Q1011 BECMG 34013KT
RJBB 181200Z 32016KT 9999 FEW020 SCT050 25/21 Q1011 BECMG 34013KT
RJBB 181130Z 33014KT 9999 FEW020 SCT050 25/21 Q1010 NOSIG
RJBB 181100Z 33016KT 9999 FEW020 BKN050 25/22 Q1010 NOSIG
RJBB 181030Z 33018KT 9999 FEW020 BKN050 25/22 Q1009 NOSIG
RJBB 181000Z 33017KT 9999 FEW015 BKN050 25/22 Q1009 NOSIG
RJBB 180930Z 33016KT 9999 FEW015 SCT050 26/22 Q1009 NOSIG
RJBB 180900Z 34014KT 9999 FEW015 SCT060 26/22 Q1008 NOSIG
RJBB 180830Z 34014KT 9999 FEW015 SCT060 26/22 Q1008 NOSIG
RJBB 180800Z 34014KT 9999 FEW015 SCT060 26/23 Q1007 NOSIG
RJBB 180730Z 29011KT 9999 FEW015 SCT050 BKN070 26/24 Q1007 BECMG 33010KT
RJBB 180700Z 29012KT 9999 FEW015 SCT050 BKN070 26/24 Q1006 BECMG FM0730 33010KT
RJBB 180630Z 32008KT 9999 FEW015 SCT025 BKN050 26/24 Q1006 NOSIG
RJBB 180600Z 30004KT 9999 -SHRA FEW015 SCT050 BKN070 27/24 Q1006 NOSIG
RJBB 180530Z 26006KT 9999 FEW015 SCT040 BKN070 27/24 Q1006 NOSIG
RJBB 180500Z 27006KT 9999 FEW015 SCT050 BKN070 27/24 Q1006 NOSIG
RJBB 180430Z 28007KT 9999 FEW010 SCT040 BKN060 27/24 Q1006 NOSIG
RJBB 180400Z 30009KT 9999 FEW010 SCT040 BKN060 27/24 Q1006 NOSIG
RJBB 180330Z 30010KT 9999 FEW010 BKN050 26/24 Q1006 NOSIG
RJBB 180300Z 30010KT 9999 FEW008 SCT040 26/24 Q1006 NOSIG
RJBB 180230Z 27007KT 9999 FEW008 SCT040 26/24 Q1006 NOSIG
RJBB 180200Z 29010KT 9999 FEW005 SCT030 BKN040 25/23 Q1006 NOSIG
RJBB 180130Z 30011KT 9999 FEW005 BKN040 25/24 Q1006 NOSIG
RJBB 180100Z 31014KT 9999 VCSH FEW003 SCT020 BKN040 24/23 Q1006 NOSIG
RJBB 180030Z 30013KT 9999 -SHRA FEW003 SCT020 BKN030 24/24 Q1006 NOSIG
RJBB 180000Z 33010KT 7000 -SHRA FEW003 SCT010 BKN020 24/24 Q1005 BECMG 31010KT
RJBB 172341Z 35012KT 4500 -SHRA BR FEW003 SCT010 BKN020 24/23 Q1005 RMK 1ST003 3CU010 5CU020 A2969
RJBB 172330Z 33016KT 3000 R06R/P2000N R06L/P2000N -SHRA BR FEW003 SCT010 BKN020 24/23 Q1005 BECMG 31013KT 7000 -SHRA
RJBB 172310Z 33014KT 3000 -SHRA BR FEW003 SCT010 BKN020 24/23 Q1004 RMK 1ST003 3CU010 5CU020 A2967
RJBB 172300Z 34014KT 8000 -SHRA FEW003 SCT010 BKN025 24/23 Q1004 TEMPO FEW003 SCT008 BKN012
RJBB 172230Z 04013KT 7000 VCSH FEW003 SCT010 BKN025 24/23 Q1003 BECMG 34015KT
RJBB 172200Z 04011KT 4500 -SHRA BR FEW003 SCT010 BKN020 24/23 Q1003 BECMG 34015KT 8000 -SHRA
RJBB 172130Z 05011KT 8000 -SHRA FEW003 SCT010 BKN020 23/23 Q1002 BECMG 35015KT
RJBB 172100Z 07013KT 5000 -SHRA BR FEW003 SCT010 BKN020 23/23 Q1002 NOSIG
RJBB 172049Z AUTO 06013KT 4200 -RA BR FEW003 OVC012 23/23 Q1002 RMK A2960
RJBB 172030Z AUTO 06014KT 9000 -RA OVC014 23/23 Q1002 BECMG FEW005 SCT012 BKN020
RJBB 172018Z AUTO 06014KT 3100 -RA BR OVC015 23/23 Q1002 RMK A2960
RJBB 172011Z AUTO 06015KT 3900 -RA BR OVC017 23/23 Q1002 RMK A2959
RJBB 172000Z AUTO 06013KT 4300 -RA BR OVC017 23/23 Q1002 TEMPO TL2100 FEW003 SCT008 BKN012 BECMG FM2100 9999 NSW
RJBB 171936Z AUTO 07013KT 5000 -RA BR SCT017 OVC020 23/23 Q1002 RMK A2959
RJBB 171930Z AUTO 07013KT 3900 -RA BR FEW017 BKN020 OVC027 23/23 Q1002 TEMPO FEW003 SCT008 BKN012
RJBB 171900Z AUTO 07015KT 9999 BKN020 OVC023 //////CB 23/23 Q1002 TEMPO 4000 -SHRA BR FEW003 SCT008 BKN012
RJBB 171830Z AUTO 06012KT 9999 BKN016 BKN020 OVC026 //////CB 23/23 Q1003 TEMPO 4000 SHRA BR FEW003 SCT008 BKN012
RJBB 171817Z AUTO 07010KT 9999 -RA FEW017 SCT021 BKN023 //////CB 23/23 Q1003 RMK A2962 CB 35KM S MOV E TCU ALL QUAD MOV UNKNOWN
RJBB 171807Z AUTO 07010KT 4700 RA BR FEW015 SCT026 BKN029 //////CB 23/23 Q1003 RMK A2962 RI004 CB 35KM SE-S MOV E TCU 40KM N MOV UNKNOWN
RJBB 171800Z AUTO 08009KT 060V120 5000 RA BR FEW017 SCT026 BKN032 //////CB 23/23 Q1002 TEMPO 3000 SHRA BR FEW002 BKN008 BKN015 FEW020CB
RJBB 171746Z AUTO 11011KT 8000 RA FEW017 SCT026 BKN033 //////CB 23/22 Q1002 RMK A2961 RI003 CB 10KM SE-SW MOV E
RJBB 171741Z AUTO 07016KT 2800 RA BR FEW005 SCT026 BKN032 //////CB 23/23 Q1002 RMK A2961 RI003 CB 10KM SE-SW MOV E
RJBB 171705Z AUTO 08017G27KT 6000 RA SCT002 SCT019 BKN022 //////TCU 23/23 Q1003 RMK A2964 RI005 TCU OHD MOV UNKNOWN
RJBB 171648Z AUTO 06017G27KT 3600 R06R/2000N R06L/P2000N RA BR SCT002 BKN027 BKN030 //////TCU 23/22 Q1004 RMK A2966 RI013 TCU S-OHD-N MOV NE AND 35KM N MOV N
RJBB 171640Z AUTO 06019KT 1100 R06R/2000N R06L/P2000N +RA BR FEW002 SCT007 BKN016 //////TCU 23/22 Q1004 RMK A2967 RI050 TCU S-OHD-N MOV NE AND 35KM N MOV N
RJBB 171626Z AUTO 05018KT 1000 R06R/1900N R06L/1900U +RA BR SCT010 BKN014 OVC015 //////TCU 23/23 Q1005 RMK A2968 RI100 TCU S-OHD-N MOV NE
RJBB 171611Z AUTO 05014KT 1100 R06R/P2000N R06L/P2000N +RA BR BKN002 OVC032 //////TCU 23/23 Q1004 RMK A2966 RI050 TCU OHD MOV NE
RJBB 171551Z AUTO 05019KT 2900 RA BR FEW003 BKN021 BKN023 //////TCU 23/23 Q1004 RMK A2966 RI010 TCU SE-OHD-NW MOV NE
RJBB 171537Z AUTO 04019KT 3200 +RA BR FEW005 BKN015 BKN034 //////CB 23/23 Q1005 RMK A2968 RI015 CB S-OHD-N MOV N TCU 40KM SE MOV UNKNOWN
RJBB 171530Z AUTO 04019KT 4000 +RA BR FEW003 SCT015 BKN027 //////CB 23/23 Q1005 TEMPO 3000 +TSRA BR FEW003 BKN008 BKN015 FEW020CB
RJBB 171518Z AUTO 05018KT 2100 +RA BR FEW003 BKN015 BKN023 //////CB 23/23 Q1004 RMK A2967 RI042 CB 15KM SW MOV UNKNOWN TCU OHD MOV UNKNOWN
RJBB 171509Z AUTO 04018KT 5000 RA BR SCT004 SCT009 BKN015 //////CB 23/22 Q1005 RMK A2969 RI004 CB OHD MOV N
RJBB 171500Z AUTO 03015KT 3300 RA BR FEW002 SCT004 BKN009 //////CB 23/23 Q1005 TEMPO 3000 +SHRA BR
RJBB 171448Z AUTO 05017KT 1800 +RA BR FEW007 SCT019 BKN024 //////TCU 23/22 Q1005 RMK A2969 RI050 TCU OHD MOV NE
RJBB 171439Z AUTO 05015KT 4200 +RA BR FEW003 SCT026 BKN032 //////TCU 23/22 Q1005 RMK A2970 RI018 TCU 5KM S-W MOV NE
RJBB 171430Z AUTO 05013KT 2700 RA BR FEW003 SCT017 BKN034 //////TCU 23/22 Q1006 NOSIG
RJBB 171419Z AUTO 05010KT 3000 +RA BR FEW006 SCT017 BKN031 //////TCU 23/22 Q1006 RMK A2971 RI037 TCU OHD MOV NE
RJBB 171411Z AUTO 05009KT 2300 +RA BR FEW010 SCT020 BKN031 //////TCU 23/22 Q1005 RMK A2970 RI037 TCU OHD MOV NE
RJBB 171339Z 08011KT 4500 +SHRA BR FEW005 FEW025CB BKN040 BKN070 23/22 Q1006 RMK 1ST005 1CB025 5CU040 6AC070 A2972 CB 10KM SW MOV N
RJBB 171330Z 06009KT 7000 SHRA FEW005 FEW025CB SCT040 BKN070 23/21 Q1006 TEMPO 4000 SHRA BR
RJBB 171316Z 08009KT 5000 SHRA BR FEW005 FEW025CB SCT040 BKN070 23/22 Q1006 RMK 1ST005 1CB025 3CU040 5AC070 A2973 MOD TURB OBS AT 1300Z 10NM SE EVERT BTN 18000FT AND 17000FT B738 CB 25KM SW MOV N
RJBB 171300Z 06009KT 9999 -SHRA FEW005 FEW025CB SCT040 BKN070 23/22 Q1006 TEMPO 4000 SHRA BR
RJBB 171238Z 05009KT 9999 -SHRA FEW005 SCT040 BKN070 23/22 Q1006 RMK 1ST005 3CU040 5AC070 A2973
RJBB 171230Z 05008KT 8000 SHRA FEW005 FEW025CB SCT040 BKN070 23/22 Q1007 BECMG -SHRA
RJBB 171218Z 07005KT 6000 SHRA BR FEW005 FEW025CB SCT040 BKN070 23/22 Q1007 RMK 1ST005 1CB025 3CU040 5AC070 A2975 CB 25KM W MOV NE
RJBB 171200Z 05007KT 9999 -SHRA FEW005 SCT040 BKN080 23/22 Q1007 NOSIG
RJBB 171130Z 07006KT 9999 -SHRA FEW005 SCT040 BKN080 23/22 Q1007 NOSIG
RJBB 171100Z 07009KT 9999 -SHRA FEW005 SCT040 BKN080 23/22 Q1007 TEMPO 4000 SHRA BR
RJBB 171030Z 06007KT 9999 -SHRA FEW005 SCT040 BKN080 23/22 Q1008 NOSIG
RJBB 171015Z 07006KT 9999 -SHRA FEW005 SCT040 BKN070 23/22 Q1007 RMK 1ST005 3CU040 5AC070 A2976
RJBB 171000Z 08006KT 9999 SHRA FEW005 SCT040 BKN070 23/22 Q1007 BECMG -SHRA
RJBB 170930Z 07008KT 9999 -SHRA FEW005 SCT040 BKN070 23/22 Q1008 NOSIG
RJBB 170900Z 05004KT 9999 -SHRA FEW005 SCT040 BKN070 23/22 Q1008 NOSIG
RJBB 170830Z 05006KT 9999 -SHRA FEW005 SCT040 BKN070 23/22 Q1008 NOSIG
RJBB 170800Z 03007KT 9999 VCSH FEW005 SCT060 BKN070 23/22 Q1008 NOSIG
RJBB 170745Z 03008KT 9999 -SHRA FEW005 SCT035 BKN070 23/22 Q1008 RMK 1ST005 3CU035 6AC070 A2978
RJBB 170730Z 05006KT 7000 SHRA BR FEW005 BKN035 BKN070 23/22 Q1008 BECMG -SHRA
RJBB 170700Z VRB01KT 7000 SHRA BR FEW005 BKN035 BKN080 24/22 Q1009 BECMG 05005KT -SHRA
RJBB 170630Z 06003KT 010V090 9999 -SHRA FEW005 SCT035 BKN080 24/22 Q1009 TEMPO SHRA
RJBB 170600Z 05004KT 9999 -SHRA FEW005 SCT035 BKN080 24/22 Q1009 NOSIG
RJBB 170530Z 04005KT 9999 -SHRA FEW005 SCT035 BKN080 24/22 Q1009 NOSIG
RJBB 170500Z 02006KT 9999 -SHRA FEW005 SCT035 BKN080 24/22 Q1010 NOSIG
RJBB 170430Z 02005KT 9999 -SHRA FEW005 SCT035 BKN080 23/22 Q1010 NOSIG
RJBB 170400Z VRB01KT 9999 -SHRA FEW005 SCT035 BKN080 24/21 Q1010 BECMG 06005KT
RJBB 170330Z 09003KT 9999 FEW003 SCT080 BKN140 24/21 Q1011 NOSIG
RJBB 170300Z 04004KT 9999 FEW003 SCT080 BKN140 24/22 Q1011 NOSIG
RJBB 170230Z 06006KT 9999 -SHRA FEW003 SCT030 BKN080 23/21 Q1012 NOSIG
RJBB 170200Z 07004KT 9999 -SHRA FEW003 SCT030 BKN080 23/22 Q1012 NOSIG
RJBB 170139Z VRB01KT 8000 SHRA FEW005 SCT030 BKN080 23/22 Q1013 RMK 1ST005 4CU030 7AC080 A2991
RJBB 170130Z 00000KT 9999 -SHRA FEW005 SCT030 BKN080 23/21 Q1013 NOSIG
RJBB 170100Z VRB02KT 9999 -SHRA FEW005 SCT030 BKN100 23/21 Q1013 NOSIG
RJBB 170030Z 10004KT 9999 -SHRA FEW006 SCT030 BKN100 23/21 Q1013 NOSIG
RJBB 170000Z 13005KT 9999 -SHRA FEW006 SCT030 BKN100 23/21 Q1013 NOSIG
RJBB 162330Z 14007KT 120V180 9999 -SHRA FEW008 SCT030 BKN090 23/21 Q1012 TEMPO 4000 SHRA BR